sensor_id;sensor_type;location;lat;lon;timestamp;temperature;humidity
56308;DHT22;42217;50.422;7.210;2022-07-06T00:01:22;13.10;75.00
56308;DHT22;42217;50.422;7.210;2022-07-06T00:03:48;13.10;76.50
56308;DHT22;42217;50.422;7.210;2022-07-06T00:06:13;12.90;79.30
56308;DHT22;42217;50.422;7.210;2022-07-06T00:08:39;12.90;82.00
56308;DHT22;42217;50.422;7.210;2022-07-06T00:11:05;12.80;83.00
56308;DHT22;42217;50.422;7.210;2022-07-06T00:13:31;12.90;83.70
56308;DHT22;42217;50.422;7.210;2022-07-06T00:15:57;12.90;83.30
56308;DHT22;42217;50.422;7.210;2022-07-06T00:18:22;12.80;84.50
56308;DHT22;42217;50.422;7.210;2022-07-06T00:20:48;12.80;86.20
56308;DHT22;42217;50.422;7.210;2022-07-06T00:23:14;12.80;85.30
56308;DHT22;42217;50.422;7.210;2022-07-06T00:25:40;12.90;83.90
56308;DHT22;42217;50.422;7.210;2022-07-06T00:28:06;12.70;86.10
56308;DHT22;42217;50.422;7.210;2022-07-06T00:30:31;12.70;87.20
56308;DHT22;42217;50.422;7.210;2022-07-06T00:32:57;12.80;87.60
56308;DHT22;42217;50.422;7.210;2022-07-06T00:35:26;12.80;85.40
56308;DHT22;42217;50.422;7.210;2022-07-06T00:37:52;12.80;86.50
56308;DHT22;42217;50.422;7.210;2022-07-06T00:40:18;12.80;86.10
56308;DHT22;42217;50.422;7.210;2022-07-06T00:42:46;12.80;83.70
56308;DHT22;42217;50.422;7.210;2022-07-06T00:45:13;12.80;80.90
56308;DHT22;42217;50.422;7.210;2022-07-06T00:47:40;12.90;77.10
56308;DHT22;42217;50.422;7.210;2022-07-06T00:50:09;12.80;79.80
56308;DHT22;42217;50.422;7.210;2022-07-06T00:53:01;12.70;79.80
56308;DHT22;42217;50.422;7.210;2022-07-06T00:55:29;12.60;81.50
56308;DHT22;42217;50.422;7.210;2022-07-06T00:57:56;12.60;81.10
56308;DHT22;42217;50.422;7.210;2022-07-06T01:00:26;12.60;79.40
56308;DHT22;42217;50.422;7.210;2022-07-06T01:02:52;12.60;79.60
56308;DHT22;42217;50.422;7.210;2022-07-06T01:05:19;12.50;78.50
56308;DHT22;42217;50.422;7.210;2022-07-06T01:07:47;12.50;79.10
56308;DHT22;42217;50.422;7.210;2022-07-06T01:10:14;12.40;80.10
56308;DHT22;42217;50.422;7.210;2022-07-06T01:12:41;12.30;81.80
56308;DHT22;42217;50.422;7.210;2022-07-06T01:15:17;12.30;84.20
56308;DHT22;42217;50.422;7.210;2022-07-06T01:17:43;12.30;80.60
56308;DHT22;42217;50.422;7.210;2022-07-06T01:20:16;12.40;78.00
56308;DHT22;42217;50.422;7.210;2022-07-06T01:22:43;12.40;77.30
56308;DHT22;42217;50.422;7.210;2022-07-06T01:25:10;12.30;79.20
56308;DHT22;42217;50.422;7.210;2022-07-06T01:27:37;12.20;77.90
56308;DHT22;42217;50.422;7.210;2022-07-06T01:30:15;12.20;78.80
56308;DHT22;42217;50.422;7.210;2022-07-06T01:32:42;12.20;77.60
56308;DHT22;42217;50.422;7.210;2022-07-06T01:35:09;12.10;77.30
56308;DHT22;42217;50.422;7.210;2022-07-06T01:37:36;12.20;75.40
56308;DHT22;42217;50.422;7.210;2022-07-06T01:40:06;12.10;76.40
56308;DHT22;42217;50.422;7.210;2022-07-06T01:42:33;12.10;73.00
56308;DHT22;42217;50.422;7.210;2022-07-06T01:44:59;12.00;73.70
56308;DHT22;42217;50.422;7.210;2022-07-06T01:47:25;12.00;73.50
56308;DHT22;42217;50.422;7.210;2022-07-06T01:49:51;12.00;72.00
56308;DHT22;42217;50.422;7.210;2022-07-06T01:52:17;12.00;71.80
56308;DHT22;42217;50.422;7.210;2022-07-06T01:54:43;11.90;70.10
56308;DHT22;42217;50.422;7.210;2022-07-06T01:57:09;11.90;66.70
56308;DHT22;42217;50.422;7.210;2022-07-06T01:59:35;11.80;66.80
56308;DHT22;42217;50.422;7.210;2022-07-06T02:02:01;11.80;67.50
56308;DHT22;42217;50.422;7.210;2022-07-06T02:04:27;11.70;66.20
56308;DHT22;42217;50.422;7.210;2022-07-06T02:06:53;11.70;64.10
56308;DHT22;42217;50.422;7.210;2022-07-06T02:09:18;11.70;64.10
56308;DHT22;42217;50.422;7.210;2022-07-06T02:11:44;11.70;62.40
56308;DHT22;42217;50.422;7.210;2022-07-06T02:14:10;11.60;62.30
56308;DHT22;42217;50.422;7.210;2022-07-06T02:16:36;11.60;60.40
56308;DHT22;42217;50.422;7.210;2022-07-06T02:19:02;11.60;58.70
56308;DHT22;42217;50.422;7.210;2022-07-06T02:21:28;11.60;59.50
56308;DHT22;42217;50.422;7.210;2022-07-06T02:23:53;11.50;60.60
56308;DHT22;42217;50.422;7.210;2022-07-06T02:26:19;11.40;64.60
56308;DHT22;42217;50.422;7.210;2022-07-06T02:28:45;11.40;65.00
56308;DHT22;42217;50.422;7.210;2022-07-06T02:31:13;11.40;66.60
56308;DHT22;42217;50.422;7.210;2022-07-06T02:33:39;11.40;66.90
56308;DHT22;42217;50.422;7.210;2022-07-06T02:36:05;11.30;67.80
56308;DHT22;42217;50.422;7.210;2022-07-06T02:38:31;11.20;71.40
56308;DHT22;42217;50.422;7.210;2022-07-06T02:40:56;11.20;72.00
56308;DHT22;42217;50.422;7.210;2022-07-06T02:43:22;11.10;73.50
56308;DHT22;42217;50.422;7.210;2022-07-06T02:45:48;11.20;72.90
56308;DHT22;42217;50.422;7.210;2022-07-06T02:48:13;11.10;75.20
56308;DHT22;42217;50.422;7.210;2022-07-06T02:50:39;11.10;74.70
56308;DHT22;42217;50.422;7.210;2022-07-06T02:53:05;11.10;75.50
56308;DHT22;42217;50.422;7.210;2022-07-06T02:55:31;11.10;75.40
56308;DHT22;42217;50.422;7.210;2022-07-06T02:57:56;11.20;75.50
56308;DHT22;42217;50.422;7.210;2022-07-06T03:00:22;11.10;76.00
56308;DHT22;42217;50.422;7.210;2022-07-06T03:02:48;11.00;80.20
56308;DHT22;42217;50.422;7.210;2022-07-06T03:05:14;11.00;82.40
56308;DHT22;42217;50.422;7.210;2022-07-06T03:07:39;10.90;84.70
56308;DHT22;42217;50.422;7.210;2022-07-06T03:10:05;10.90;86.60
56308;DHT22;42217;50.422;7.210;2022-07-06T03:12:31;10.90;87.30
56308;DHT22;42217;50.422;7.210;2022-07-06T03:14:57;10.80;90.30
56308;DHT22;42217;50.422;7.210;2022-07-06T03:17:22;10.70;90.90
56308;DHT22;42217;50.422;7.210;2022-07-06T03:19:48;10.70;92.40
56308;DHT22;42217;50.422;7.210;2022-07-06T03:22:14;10.80;92.50
56308;DHT22;42217;50.422;7.210;2022-07-06T03:24:39;10.80;92.80
56308;DHT22;42217;50.422;7.210;2022-07-06T03:27:05;10.80;93.00
56308;DHT22;42217;50.422;7.210;2022-07-06T03:29:31;10.80;93.90
56308;DHT22;42217;50.422;7.210;2022-07-06T03:31:57;10.80;94.30
56308;DHT22;42217;50.422;7.210;2022-07-06T03:34:22;10.80;94.50
56308;DHT22;42217;50.422;7.210;2022-07-06T03:36:48;10.80;94.20
56308;DHT22;42217;50.422;7.210;2022-07-06T03:39:14;10.90;93.90
56308;DHT22;42217;50.422;7.210;2022-07-06T03:41:39;10.90;93.60
56308;DHT22;42217;50.422;7.210;2022-07-06T03:44:05;11.00;93.30
56308;DHT22;42217;50.422;7.210;2022-07-06T03:46:31;11.00;93.70
56308;DHT22;42217;50.422;7.210;2022-07-06T03:48:56;11.00;93.30
56308;DHT22;42217;50.422;7.210;2022-07-06T03:51:22;11.00;93.50
56308;DHT22;42217;50.422;7.210;2022-07-06T03:53:48;11.00;93.50
56308;DHT22;42217;50.422;7.210;2022-07-06T03:56:13;11.10;93.50
56308;DHT22;42217;50.422;7.210;2022-07-06T03:58:58;11.30;91.60
56308;DHT22;42217;50.422;7.210;2022-07-06T04:01:25;11.40;89.70
56308;DHT22;42217;50.422;7.210;2022-07-06T04:03:50;11.50;88.10
56308;DHT22;42217;50.422;7.210;2022-07-06T04:14:15;11.90;82.00
56308;DHT22;42217;50.422;7.210;2022-07-06T04:16:42;12.00;79.60
56308;DHT22;42217;50.422;7.210;2022-07-06T04:19:08;12.20;73.90
56308;DHT22;42217;50.422;7.210;2022-07-06T04:21:34;12.30;70.80
56308;DHT22;42217;50.422;7.210;2022-07-06T04:24:00;12.40;70.70
56308;DHT22;42217;50.422;7.210;2022-07-06T04:26:25;12.60;64.60
56308;DHT22;42217;50.422;7.210;2022-07-06T04:28:51;12.80;61.00
56308;DHT22;42217;50.422;7.210;2022-07-06T04:31:17;12.90;56.40
56308;DHT22;42217;50.422;7.210;2022-07-06T04:33:43;12.80;57.90
56308;DHT22;42217;50.422;7.210;2022-07-06T04:36:09;12.70;61.00
56308;DHT22;42217;50.422;7.210;2022-07-06T04:38:35;12.60;64.60
56308;DHT22;42217;50.422;7.210;2022-07-06T04:41:01;12.50;66.90
56308;DHT22;42217;50.422;7.210;2022-07-06T04:43:27;12.20;75.60
56308;DHT22;42217;50.422;7.210;2022-07-06T04:45:53;12.00;79.10
56308;DHT22;42217;50.422;7.210;2022-07-06T04:48:18;11.80;84.50
56308;DHT22;42217;50.422;7.210;2022-07-06T04:50:44;11.70;85.90
56308;DHT22;42217;50.422;7.210;2022-07-06T04:53:11;11.60;89.50
56308;DHT22;42217;50.422;7.210;2022-07-06T04:55:36;11.50;90.90
56308;DHT22;42217;50.422;7.210;2022-07-06T04:58:02;11.50;90.90
56308;DHT22;42217;50.422;7.210;2022-07-06T05:00:28;11.50;90.50
56308;DHT22;42217;50.422;7.210;2022-07-06T05:02:54;11.70;90.30
56308;DHT22;42217;50.422;7.210;2022-07-06T05:05:20;11.80;90.30
56308;DHT22;42217;50.422;7.210;2022-07-06T05:07:46;11.90;84.80
56308;DHT22;42217;50.422;7.210;2022-07-06T05:10:12;12.00;84.40
56308;DHT22;42217;50.422;7.210;2022-07-06T05:12:38;12.10;83.80
56308;DHT22;42217;50.422;7.210;2022-07-06T05:15:05;12.20;81.60
56308;DHT22;42217;50.422;7.210;2022-07-06T05:17:31;12.30;80.00
56308;DHT22;42217;50.422;7.210;2022-07-06T05:19:57;12.30;78.70
56308;DHT22;42217;50.422;7.210;2022-07-06T05:22:23;12.30;79.10
56308;DHT22;42217;50.422;7.210;2022-07-06T05:24:50;12.40;77.00
56308;DHT22;42217;50.422;7.210;2022-07-06T05:27:16;12.50;76.50
56308;DHT22;42217;50.422;7.210;2022-07-06T05:29:42;12.70;71.90
56308;DHT22;42217;50.422;7.210;2022-07-06T05:32:08;12.90;68.80
56308;DHT22;42217;50.422;7.210;2022-07-06T05:34:34;13.10;62.10
56308;DHT22;42217;50.422;7.210;2022-07-06T05:37:05;13.20;63.80
56308;DHT22;42217;50.422;7.210;2022-07-06T05:39:46;13.30;61.40
56308;DHT22;42217;50.422;7.210;2022-07-06T05:42:15;13.50;53.20
56308;DHT22;42217;50.422;7.210;2022-07-06T05:44:41;13.60;52.90
56308;DHT22;42217;50.422;7.210;2022-07-06T05:47:07;13.60;52.80
56308;DHT22;42217;50.422;7.210;2022-07-06T05:49:54;13.70;52.70
56308;DHT22;42217;50.422;7.210;2022-07-06T05:52:42;13.90;47.20
56308;DHT22;42217;50.422;7.210;2022-07-06T05:55:12;14.00;49.10
56308;DHT22;42217;50.422;7.210;2022-07-06T05:57:41;14.10;42.40
56308;DHT22;42217;50.422;7.210;2022-07-06T06:00:11;14.20;42.80
56308;DHT22;42217;50.422;7.210;2022-07-06T06:02:43;14.30;38.80
56308;DHT22;42217;50.422;7.210;2022-07-06T06:05:11;14.30;32.40
56308;DHT22;42217;50.422;7.210;2022-07-06T06:07:41;14.10;44.70
56308;DHT22;42217;50.422;7.210;2022-07-06T06:10:11;14.20;39.80
56308;DHT22;42217;50.422;7.210;2022-07-06T06:12:38;14.20;41.70
56308;DHT22;42217;50.422;7.210;2022-07-06T06:15:05;14.20;40.30
56308;DHT22;42217;50.422;7.210;2022-07-06T06:17:31;14.30;42.80
56308;DHT22;42217;50.422;7.210;2022-07-06T06:19:59;14.30;47.70
56308;DHT22;42217;50.422;7.210;2022-07-06T06:22:26;14.60;29.30
56308;DHT22;42217;50.422;7.210;2022-07-06T06:24:52;14.60;27.20
56308;DHT22;42217;50.422;7.210;2022-07-06T06:27:18;14.40;30.90
56308;DHT22;42217;50.422;7.210;2022-07-06T06:29:44;14.40;37.60
56308;DHT22;42217;50.422;7.210;2022-07-06T06:32:11;14.50;30.50
56308;DHT22;42217;50.422;7.210;2022-07-06T06:34:39;14.70;28.20
56308;DHT22;42217;50.422;7.210;2022-07-06T06:37:10;14.90;22.80
56308;DHT22;42217;50.422;7.210;2022-07-06T06:39:38;15.00;19.10
56308;DHT22;42217;50.422;7.210;2022-07-06T06:42:08;14.70;26.90
56308;DHT22;42217;50.422;7.210;2022-07-06T06:44:35;14.70;23.90
56308;DHT22;42217;50.422;7.210;2022-07-06T06:47:02;14.60;24.10
56308;DHT22;42217;50.422;7.210;2022-07-06T06:49:28;14.60;24.00
56308;DHT22;42217;50.422;7.210;2022-07-06T06:51:58;14.90;16.10
56308;DHT22;42217;50.422;7.210;2022-07-06T06:54:27;14.90;11.80
56308;DHT22;42217;50.422;7.210;2022-07-06T06:56:53;15.20;3.10
56308;DHT22;42217;50.422;7.210;2022-07-06T06:59:19;15.10;1.00
56308;DHT22;42217;50.422;7.210;2022-07-06T07:01:45;15.00;1.00
56308;DHT22;42217;50.422;7.210;2022-07-06T07:04:11;14.90;1.00
56308;DHT22;42217;50.422;7.210;2022-07-06T07:06:37;14.80;1.00
56308;DHT22;42217;50.422;7.210;2022-07-06T07:09:06;14.70;1.00
56308;DHT22;42217;50.422;7.210;2022-07-06T07:11:32;14.90;1.00
56308;DHT22;42217;50.422;7.210;2022-07-06T07:13:58;15.20;1.00
56308;DHT22;42217;50.422;7.210;2022-07-06T07:16:26;15.30;1.00
56308;DHT22;42217;50.422;7.210;2022-07-06T07:18:52;15.30;1.00
56308;DHT22;42217;50.422;7.210;2022-07-06T07:21:19;15.50;1.00
56308;DHT22;42217;50.422;7.210;2022-07-06T07:23:45;15.60;1.00
56308;DHT22;42217;50.422;7.210;2022-07-06T07:26:11;15.40;1.00
56308;DHT22;42217;50.422;7.210;2022-07-06T15:16:27;24.20;99.90
56308;DHT22;42217;50.422;7.210;2022-07-06T15:18:53;23.00;99.90
56308;DHT22;42217;50.422;7.210;2022-07-06T15:21:19;24.50;99.90
56308;DHT22;42217;50.422;7.210;2022-07-06T15:23:45;25.40;99.90
56308;DHT22;42217;50.422;7.210;2022-07-06T15:26:11;26.40;99.90
56308;DHT22;42217;50.422;7.210;2022-07-06T15:28:36;27.80;99.90
56308;DHT22;42217;50.422;7.210;2022-07-06T15:31:02;27.70;99.90
56308;DHT22;42217;50.422;7.210;2022-07-06T15:33:28;27.10;99.90
56308;DHT22;42217;50.422;7.210;2022-07-06T15:35:53;26.50;99.90
56308;DHT22;42217;50.422;7.210;2022-07-06T15:38:19;26.20;99.90
56308;DHT22;42217;50.422;7.210;2022-07-06T15:40:48;26.50;99.90
56308;DHT22;42217;50.422;7.210;2022-07-06T15:43:25;27.30;99.90
56308;DHT22;42217;50.422;7.210;2022-07-06T15:45:56;28.00;99.90
56308;DHT22;42217;50.422;7.210;2022-07-06T15:48:24;27.50;99.90
56308;DHT22;42217;50.422;7.210;2022-07-06T15:50:50;26.90;99.90
56308;DHT22;42217;50.422;7.210;2022-07-06T15:53:16;26.80;99.90
56308;DHT22;42217;50.422;7.210;2022-07-06T15:55:42;26.50;99.90
56308;DHT22;42217;50.422;7.210;2022-07-06T15:58:08;25.80;99.90
56308;DHT22;42217;50.422;7.210;2022-07-06T16:00:34;25.50;99.90
56308;DHT22;42217;50.422;7.210;2022-07-06T16:03:00;25.90;99.90
56308;DHT22;42217;50.422;7.210;2022-07-06T16:05:26;25.90;99.90
56308;DHT22;42217;50.422;7.210;2022-07-06T16:07:53;26.50;99.90
56308;DHT22;42217;50.422;7.210;2022-07-06T16:10:18;27.00;99.90
56308;DHT22;42217;50.422;7.210;2022-07-06T16:12:44;26.80;99.90
56308;DHT22;42217;50.422;7.210;2022-07-06T16:15:10;26.40;99.90
56308;DHT22;42217;50.422;7.210;2022-07-06T16:17:36;27.00;99.90
56308;DHT22;42217;50.422;7.210;2022-07-06T16:20:03;27.40;99.90
56308;DHT22;42217;50.422;7.210;2022-07-06T16:22:29;27.00;99.90
56308;DHT22;42217;50.422;7.210;2022-07-06T16:24:56;27.50;99.90
56308;DHT22;42217;50.422;7.210;2022-07-06T16:27:22;27.70;99.90
56308;DHT22;42217;50.422;7.210;2022-07-06T16:29:48;28.20;99.90
56308;DHT22;42217;50.422;7.210;2022-07-06T16:32:14;28.00;99.90
56308;DHT22;42217;50.422;7.210;2022-07-06T16:34:40;28.30;99.90
56308;DHT22;42217;50.422;7.210;2022-07-06T16:37:05;29.20;99.90
56308;DHT22;42217;50.422;7.210;2022-07-06T16:39:32;29.30;99.90
56308;DHT22;42217;50.422;7.210;2022-07-06T16:42:01;28.90;98.40
56308;DHT22;42217;50.422;7.210;2022-07-06T16:44:26;29.00;94.50
56308;DHT22;42217;50.422;7.210;2022-07-06T16:46:52;29.20;92.00
56308;DHT22;42217;50.422;7.210;2022-07-06T16:49:18;29.20;92.40
56308;DHT22;42217;50.422;7.210;2022-07-06T16:51:44;27.90;87.50
56308;DHT22;42217;50.422;7.210;2022-07-06T16:54:09;27.10;91.40
56308;DHT22;42217;50.422;7.210;2022-07-06T16:56:35;27.60;90.00
56308;DHT22;42217;50.422;7.210;2022-07-06T16:59:01;27.70;80.70
56308;DHT22;42217;50.422;7.210;2022-07-06T17:01:27;27.40;68.70
56308;DHT22;42217;50.422;7.210;2022-07-06T17:03:52;28.30;70.40
56308;DHT22;42217;50.422;7.210;2022-07-06T17:06:24;29.00;65.50
56308;DHT22;42217;50.422;7.210;2022-07-06T17:08:51;28.60;58.90
56308;DHT22;42217;50.422;7.210;2022-07-06T17:11:17;28.00;51.70
56308;DHT22;42217;50.422;7.210;2022-07-06T17:13:44;27.80;49.60
56308;DHT22;42217;50.422;7.210;2022-07-06T17:16:09;28.10;55.30
56308;DHT22;42217;50.422;7.210;2022-07-06T17:18:35;28.70;64.30
56308;DHT22;42217;50.422;7.210;2022-07-06T17:21:01;28.80;55.00
56308;DHT22;42217;50.422;7.210;2022-07-06T17:23:27;29.10;56.40
56308;DHT22;42217;50.422;7.210;2022-07-06T17:25:52;28.70;32.90
56308;DHT22;42217;50.422;7.210;2022-07-06T17:28:24;28.30;35.40
56308;DHT22;42217;50.422;7.210;2022-07-06T17:30:50;28.30;28.30
56308;DHT22;42217;50.422;7.210;2022-07-06T17:33:15;28.20;28.70
56308;DHT22;42217;50.422;7.210;2022-07-06T17:35:41;28.40;28.30
56308;DHT22;42217;50.422;7.210;2022-07-06T17:38:09;28.00;26.70
56308;DHT22;42217;50.422;7.210;2022-07-06T17:40:34;27.50;23.50
56308;DHT22;42217;50.422;7.210;2022-07-06T17:43:00;27.60;25.40
56308;DHT22;42217;50.422;7.210;2022-07-06T17:45:26;28.30;27.00
56308;DHT22;42217;50.422;7.210;2022-07-06T17:47:52;28.40;24.80
56308;DHT22;42217;50.422;7.210;2022-07-06T17:50:19;28.00;24.60
56308;DHT22;42217;50.422;7.210;2022-07-06T17:52:46;27.20;33.00
56308;DHT22;42217;50.422;7.210;2022-07-06T17:55:12;26.10;18.90
56308;DHT22;42217;50.422;7.210;2022-07-06T17:57:38;26.60;28.50
56308;DHT22;42217;50.422;7.210;2022-07-06T18:00:05;27.40;27.30
56308;DHT22;42217;50.422;7.210;2022-07-06T18:02:34;27.90;28.40
56308;DHT22;42217;50.422;7.210;2022-07-06T18:05:00;28.60;25.50
56308;DHT22;42217;50.422;7.210;2022-07-06T18:07:25;28.70;20.50
56308;DHT22;42217;50.422;7.210;2022-07-06T18:09:51;28.40;15.40
56308;DHT22;42217;50.422;7.210;2022-07-06T18:12:23;28.60;19.70
56308;DHT22;42217;50.422;7.210;2022-07-06T18:14:49;27.70;10.30
56308;DHT22;42217;50.422;7.210;2022-07-06T18:17:15;26.10;14.70
56308;DHT22;42217;50.422;7.210;2022-07-06T18:19:53;25.00;15.20
56308;DHT22;42217;50.422;7.210;2022-07-06T18:22:19;24.00;20.90
56308;DHT22;42217;50.422;7.210;2022-07-06T18:24:45;22.90;29.30
56308;DHT22;42217;50.422;7.210;2022-07-06T18:27:11;22.20;50.70
56308;DHT22;42217;50.422;7.210;2022-07-06T18:29:37;21.80;91.20
56308;DHT22;42217;50.422;7.210;2022-07-06T18:32:04;21.50;99.90
56308;DHT22;42217;50.422;7.210;2022-07-06T18:34:31;21.40;99.90
56308;DHT22;42217;50.422;7.210;2022-07-06T18:36:57;21.40;99.90
56308;DHT22;42217;50.422;7.210;2022-07-06T18:39:23;21.30;99.90
56308;DHT22;42217;50.422;7.210;2022-07-06T18:41:49;21.00;99.90
56308;DHT22;42217;50.422;7.210;2022-07-06T18:44:15;20.90;99.90
56308;DHT22;42217;50.422;7.210;2022-07-06T18:46:41;20.60;99.90
56308;DHT22;42217;50.422;7.210;2022-07-06T18:49:07;20.40;97.30
56308;DHT22;42217;50.422;7.210;2022-07-06T18:51:34;20.20;99.90
56308;DHT22;42217;50.422;7.210;2022-07-06T18:54:02;19.90;1.00
56308;DHT22;42217;50.422;7.210;2022-07-06T18:56:28;19.70;49.10
56308;DHT22;42217;50.422;7.210;2022-07-06T18:58:55;19.40;99.90
56308;DHT22;42217;50.422;7.210;2022-07-06T19:01:22;19.10;1.00
56308;DHT22;42217;50.422;7.210;2022-07-06T19:03:48;18.90;99.90
56308;DHT22;42217;50.422;7.210;2022-07-06T19:06:15;18.60;1.00
56308;DHT22;42217;50.422;7.210;2022-07-06T19:08:42;18.30;99.90
56308;DHT22;42217;50.422;7.210;2022-07-06T19:11:08;18.10;1.00
56308;DHT22;42217;50.422;7.210;2022-07-06T19:13:36;18.00;32.00
56308;DHT22;42217;50.422;7.210;2022-07-06T19:16:06;17.80;99.90
56308;DHT22;42217;50.422;7.210;2022-07-06T19:18:33;17.60;99.90
56308;DHT22;42217;50.422;7.210;2022-07-06T19:21:00;17.40;99.90
56308;DHT22;42217;50.422;7.210;2022-07-06T19:23:26;17.30;99.90
56308;DHT22;42217;50.422;7.210;2022-07-06T19:25:52;17.20;1.00
56308;DHT22;42217;50.422;7.210;2022-07-06T19:28:18;17.00;1.00
56308;DHT22;42217;50.422;7.210;2022-07-06T19:30:45;16.90;1.00
56308;DHT22;42217;50.422;7.210;2022-07-06T19:33:11;16.70;1.00
56308;DHT22;42217;50.422;7.210;2022-07-06T19:35:36;16.60;1.00
56308;DHT22;42217;50.422;7.210;2022-07-06T19:38:02;16.50;1.00
56308;DHT22;42217;50.422;7.210;2022-07-06T19:40:28;16.50;1.00
56308;DHT22;42217;50.422;7.210;2022-07-06T19:42:57;16.40;1.00
56308;DHT22;42217;50.422;7.210;2022-07-06T19:45:23;16.30;1.00
56308;DHT22;42217;50.422;7.210;2022-07-06T19:47:49;16.30;1.00
56308;DHT22;42217;50.422;7.210;2022-07-06T19:50:15;16.20;1.00
56308;DHT22;42217;50.422;7.210;2022-07-06T19:52:42;16.20;1.00
56308;DHT22;42217;50.422;7.210;2022-07-06T19:55:08;16.20;1.00
56308;DHT22;42217;50.422;7.210;2022-07-06T19:57:34;16.20;1.00
56308;DHT22;42217;50.422;7.210;2022-07-06T20:00:01;16.10;1.00
56308;DHT22;42217;50.422;7.210;2022-07-06T20:02:28;16.10;1.00
56308;DHT22;42217;50.422;7.210;2022-07-06T20:04:54;16.00;1.00
56308;DHT22;42217;50.422;7.210;2022-07-06T20:07:20;15.90;1.00
56308;DHT22;42217;50.422;7.210;2022-07-06T20:09:46;16.00;1.00
56308;DHT22;42217;50.422;7.210;2022-07-06T20:12:12;15.90;1.00
56308;DHT22;42217;50.422;7.210;2022-07-06T20:14:39;15.90;1.00
56308;DHT22;42217;50.422;7.210;2022-07-06T20:17:05;15.80;1.00
56308;DHT22;42217;50.422;7.210;2022-07-06T20:19:31;15.80;1.00
56308;DHT22;42217;50.422;7.210;2022-07-06T20:21:58;15.80;1.00
56308;DHT22;42217;50.422;7.210;2022-07-06T20:24:26;15.80;1.00
56308;DHT22;42217;50.422;7.210;2022-07-06T20:26:53;15.80;1.00
56308;DHT22;42217;50.422;7.210;2022-07-06T20:29:18;15.80;1.00
56308;DHT22;42217;50.422;7.210;2022-07-06T20:31:45;15.80;1.00
56308;DHT22;42217;50.422;7.210;2022-07-06T20:34:11;15.80;1.00
56308;DHT22;42217;50.422;7.210;2022-07-06T20:36:38;15.70;1.00
56308;DHT22;42217;50.422;7.210;2022-07-06T20:39:04;15.70;1.00
56308;DHT22;42217;50.422;7.210;2022-07-06T20:41:30;15.60;1.00
56308;DHT22;42217;50.422;7.210;2022-07-06T20:43:57;15.60;1.00
56308;DHT22;42217;50.422;7.210;2022-07-06T20:46:25;15.60;1.00
56308;DHT22;42217;50.422;7.210;2022-07-06T20:48:52;15.50;1.00
56308;DHT22;42217;50.422;7.210;2022-07-06T20:51:18;15.60;1.00
56308;DHT22;42217;50.422;7.210;2022-07-06T20:53:44;15.50;1.00
56308;DHT22;42217;50.422;7.210;2022-07-06T20:56:10;15.50;1.00
56308;DHT22;42217;50.422;7.210;2022-07-06T20:58:36;15.50;2.60
56308;DHT22;42217;50.422;7.210;2022-07-06T21:01:02;15.40;1.00
56308;DHT22;42217;50.422;7.210;2022-07-06T21:03:28;15.40;4.50
56308;DHT22;42217;50.422;7.210;2022-07-06T21:05:56;15.40;9.60
56308;DHT22;42217;50.422;7.210;2022-07-06T21:08:22;15.40;6.90
56308;DHT22;42217;50.422;7.210;2022-07-06T21:10:48;15.40;8.60
56308;DHT22;42217;50.422;7.210;2022-07-06T21:13:13;15.40;11.60
56308;DHT22;42217;50.422;7.210;2022-07-06T21:15:39;15.30;12.30
56308;DHT22;42217;50.422;7.210;2022-07-06T21:18:05;15.20;13.50
56308;DHT22;42217;50.422;7.210;2022-07-06T21:20:31;15.20;14.70
56308;DHT22;42217;50.422;7.210;2022-07-06T21:22:57;15.20;14.60
56308;DHT22;42217;50.422;7.210;2022-07-06T21:25:22;15.20;13.10
56308;DHT22;42217;50.422;7.210;2022-07-06T21:27:48;15.30;13.10
56308;DHT22;42217;50.422;7.210;2022-07-06T21:30:14;15.20;16.20
56308;DHT22;42217;50.422;7.210;2022-07-06T21:32:39;15.20;18.20
56308;DHT22;42217;50.422;7.210;2022-07-06T21:35:05;15.10;21.80
56308;DHT22;42217;50.422;7.210;2022-07-06T21:37:31;15.00;22.70
56308;DHT22;42217;50.422;7.210;2022-07-06T21:39:57;15.00;25.30
56308;DHT22;42217;50.422;7.210;2022-07-06T21:42:23;14.90;26.30
56308;DHT22;42217;50.422;7.210;2022-07-06T21:44:48;15.00;27.30
56308;DHT22;42217;50.422;7.210;2022-07-06T21:47:14;15.00;26.80
56308;DHT22;42217;50.422;7.210;2022-07-06T21:49:40;15.00;25.20
56308;DHT22;42217;50.422;7.210;2022-07-06T21:52:06;14.90;26.70
56308;DHT22;42217;50.422;7.210;2022-07-06T21:54:32;15.00;27.90
56308;DHT22;42217;50.422;7.210;2022-07-06T21:56:58;14.90;27.10
56308;DHT22;42217;50.422;7.210;2022-07-06T21:59:24;15.00;26.50
56308;DHT22;42217;50.422;7.210;2022-07-06T22:01:51;15.00;25.40
56308;DHT22;42217;50.422;7.210;2022-07-06T22:04:17;15.00;26.70
56308;DHT22;42217;50.422;7.210;2022-07-06T22:06:43;14.90;29.10
56308;DHT22;42217;50.422;7.210;2022-07-06T22:09:09;15.00;26.50
56308;DHT22;42217;50.422;7.210;2022-07-06T22:11:34;15.10;28.20
56308;DHT22;42217;50.422;7.210;2022-07-06T22:14:00;15.10;24.90
56308;DHT22;42217;50.422;7.210;2022-07-06T22:16:26;15.20;23.00
56308;DHT22;42217;50.422;7.210;2022-07-06T22:18:52;15.20;21.50
56308;DHT22;42217;50.422;7.210;2022-07-06T22:21:19;15.20;18.60
56308;DHT22;42217;50.422;7.210;2022-07-06T22:23:45;15.20;19.90
56308;DHT22;42217;50.422;7.210;2022-07-06T22:26:12;15.30;20.30
56308;DHT22;42217;50.422;7.210;2022-07-06T22:28:44;15.30;17.90
56308;DHT22;42217;50.422;7.210;2022-07-06T22:31:10;15.30;20.70
56308;DHT22;42217;50.422;7.210;2022-07-06T22:33:36;15.30;21.80
56308;DHT22;42217;50.422;7.210;2022-07-06T22:36:04;15.30;18.90
56308;DHT22;42217;50.422;7.210;2022-07-06T22:38:31;15.30;20.60
56308;DHT22;42217;50.422;7.210;2022-07-06T22:40:56;15.30;23.20
56308;DHT22;42217;50.422;7.210;2022-07-06T22:43:36;15.30;22.70
56308;DHT22;42217;50.422;7.210;2022-07-06T22:46:03;15.30;24.40
56308;DHT22;42217;50.422;7.210;2022-07-06T22:48:29;15.30;20.70
56308;DHT22;42217;50.422;7.210;2022-07-06T22:50:56;15.30;21.30
56308;DHT22;42217;50.422;7.210;2022-07-06T22:53:22;15.40;17.90
56308;DHT22;42217;50.422;7.210;2022-07-06T22:55:48;15.50;14.70
56308;DHT22;42217;50.422;7.210;2022-07-06T22:58:15;15.60;10.00
56308;DHT22;42217;50.422;7.210;2022-07-06T23:00:41;15.70;7.00
56308;DHT22;42217;50.422;7.210;2022-07-06T23:03:06;15.70;5.60
56308;DHT22;42217;50.422;7.210;2022-07-06T23:05:32;15.70;5.90
56308;DHT22;42217;50.422;7.210;2022-07-06T23:07:58;15.70;7.40
56308;DHT22;42217;50.422;7.210;2022-07-06T23:10:24;15.70;13.30
56308;DHT22;42217;50.422;7.210;2022-07-06T23:12:49;15.50;17.70
56308;DHT22;42217;50.422;7.210;2022-07-06T23:15:15;15.40;19.30
56308;DHT22;42217;50.422;7.210;2022-07-06T23:17:41;15.30;22.40
56308;DHT22;42217;50.422;7.210;2022-07-06T23:20:07;15.30;21.90
56308;DHT22;42217;50.422;7.210;2022-07-06T23:22:34;15.40;21.60
56308;DHT22;42217;50.422;7.210;2022-07-06T23:25:00;15.30;20.20